Date,TemperatureHighF,TemperatureAvgF,TemperatureLowF,DewpointHighF,DewpointAvgF,DewpointLowF,HumidityHigh,HumidityAvg,HumidityLow,PressureMaxIn,PressureMinIn,WindSpeedMaxMPH,WindSpeedAvgMPH,GustSpeedMaxMPH,PrecipitationSumIn
2013-1-1,43.2,39.9,31.7,43.0,38.9,29.0,98,96,90,30.20,30.01,8,2,12,0.21
2013-1-2,35.0,30.3,25.6,29.0,25.3,23.0,91,82,64,30.29,30.19,5,1,7,0.00
2013-1-3,44.7,31.9,21.3,31.0,26.4,20.0,97,82,53,30.45,30.27,4,0,6,0.00
2013-1-4,49.7,33.6,22.7,35.0,27.6,21.0,97,81,50,30.52,30.40,3,0,7,0.00
2013-1-5,46.5,37.8,26.2,39.0,32.1,25.0,95,81,64,30.42,30.27,3,0,6,0.00
2013-1-6,53.3,40.4,26.1,41.0,35.0,24.0,98,83,53,30.40,30.24,6,1,11,0.00
2013-1-7,52.7,34.2,21.7,33.0,26.9,20.0,95,78,43,30.46,30.23,6,1,10,0.00
2013-1-8,61.0,44.2,28.3,45.0,36.3,26.0,94,76,48,30.29,30.16,5,0,5,0.00
2013-1-9,56.3,54.5,52.0,56.0,53.4,46.0,98,96,81,30.36,30.21,7,1,9,0.69
2013-1-10,69.3,62.8,55.8,66.0,61.8,55.0,99,96,87,30.29,29.87,7,2,14,1.03
2013-1-11,68.7,62.0,53.7,63.0,56.2,52.0,98,83,58,30.02,29.90,5,1,9,0.06
2013-1-12,72.8,69.6,64.6,69.0,67.3,64.0,99,92,85,29.94,29.72,5,2,11,0.17
2013-1-13,71.5,44.5,32.4,67.0,42.7,29.0,97,93,84,30.27,29.71,8,3,13,2.00
2013-1-14,32.0,29.7,27.8,29.0,26.2,24.0,90,87,80,30.41,30.26,7,3,13,0.00
2013-1-15,32.5,30.3,27.5,32.0,28.4,25.0,96,93,88,30.29,30.08,9,3,10,0.00
2013-1-16,33.8,32.4,30.9,32.0,31.1,30.0,97,95,92,30.18,30.07,4,1,7,0.00
2013-1-17,47.8,37.7,33.0,39.0,33.8,30.0,96,86,69,30.48,30.12,11,2,18,0.01
2013-1-18,54.4,37.1,23.8,35.0,28.9,23.0,97,76,38,30.59,30.36,3,0,5,0.00
2013-1-19,60.6,47.0,33.5,38.0,34.5,30.0,88,65,37,30.36,30.18,5,1,11,0.00
2013-1-20,59.2,45.2,31.2,39.0,33.3,29.0,97,67,36,30.28,30.17,6,1,9,0.00
2013-1-21,42.3,35.1,25.8,29.0,22.9,20.0,85,63,42,30.36,30.18,7,2,11,0.00
2013-1-22,39.8,31.6,22.7,21.0,19.0,16.0,91,62,43,30.45,30.35,9,2,9,0.00
2013-1-24,41.2,40.8,40.6,24.0,23.7,23.0,52,51,50,30.25,30.23,6,2,7,0.00
2013-1-25,48.7,39.4,31.2,46.0,34.3,24.0,96,83,49,30.26,30.04,4,1,8,0.08
2013-1-26,54.3,41.5,28.5,39.0,34.0,28.0,98,77,49,30.36,30.26,4,1,7,0.00
2013-1-27,64.7,54.1,44.6,53.0,44.4,37.0,78,70,62,30.27,30.14,4,1,6,0.00
2013-1-29,72.8,71.4,66.4,67.0,65.7,63.0,88,81,78,29.52,29.44,11,5,15,1.35
2013-1-30,64.8,49.4,34.6,63.0,44.0,28.0,98,82,62,30.02,29.49,9,2,22,2.48
2013-1-31,55.0,40.8,27.8,36.0,30.3,25.0,92,69,43,30.33,30.02,11,2,13,0.00
2013-2-1,36.1,28.8,21.8,27.0,16.5,11.0,86,61,42,30.56,30.33,7,2,11,0.00
2013-2-2,50.5,37.5,25.8,36.0,29.8,19.0,92,75,54,30.33,30.14,4,1,8,0.00
2013-2-3,54.7,43.5,32.4,36.0,32.6,29.0,95,68,41,30.19,30.11,11,1,17,0.00
2013-2-4,59.7,46.3,34.3,46.0,37.2,31.0,93,73,41,30.11,29.91,4,1,7,0.02
2013-2-5,65.8,49.2,35.9,52.0,43.7,35.0,99,83,49,30.06,29.92,4,0,7,0.00
2013-2-6,63.2,50.2,35.5,46.0,41.7,34.0,98,75,50,30.22,30.05,6,1,9,0.00
2013-2-7,70.7,57.1,41.6,56.0,49.5,39.0,95,77,57,30.05,29.86,3,0,7,0.07
2013-2-8,57.8,44.7,31.8,57.0,41.0,30.0,97,87,74,30.31,29.88,10,3,13,0.17
2013-2-9,52.6,41.9,29.7,42.0,35.2,28.0,96,79,56,30.34,30.06,6,1,8,0.01
2013-2-10,61.3,55.8,50.0,59.0,50.0,40.0,96,82,58,30.05,29.74,6,2,14,0.74
2013-2-11,58.1,50.4,44.7,54.0,37.3,29.0,89,63,35,30.20,29.94,4,1,9,0.00
2013-2-12,52.8,46.5,35.4,43.0,39.2,34.0,95,77,56,30.16,29.80,5,1,10,0.00
2013-2-13,45.5,41.7,36.1,43.0,39.5,35.0,97,92,85,30.03,29.78,6,1,9,0.02
2013-2-14,64.4,46.9,33.9,45.0,37.7,33.0,98,75,32,30.07,29.99,6,1,9,0.00
2013-2-15,54.3,44.9,32.2,40.0,34.0,26.0,94,68,35,30.20,30.05,6,2,13,0.00
2013-2-16,40.5,33.4,24.6,28.0,23.0,17.0,88,67,43,30.27,30.20,7,1,12,0.00
2013-2-17,56.9,42.9,27.9,32.0,27.5,23.0,84,57,34,30.28,30.09,4,1,10,0.00
2013-2-18,59.9,51.5,42.9,53.0,44.1,32.0,96,77,59,30.10,29.76,10,2,15,1.07
2013-2-19,49.9,42.1,29.8,45.0,31.3,26.0,90,68,41,30.29,29.94,9,2,14,0.00
2013-2-20,36.4,33.8,30.7,28.0,21.8,18.0,85,62,51,30.37,30.21,5,2,9,0.00
2013-2-21,47.7,39.7,34.0,46.0,33.0,24.0,97,78,51,30.21,29.75,7,2,10,0.66
2013-2-22,49.8,43.2,38.4,45.0,40.5,34.0,97,90,74,30.08,29.88,3,1,7,0.00
2013-2-23,51.1,39.2,30.6,35.0,32.1,29.0,94,77,53,30.07,29.95,4,1,7,0.00
2013-2-24,59.6,43.4,28.2,37.0,32.1,27.0,96,68,39,30.12,29.92,7,1,13,0.00
2013-2-25,61.0,52.6,40.4,54.0,40.4,30.0,95,65,38,29.93,29.31,12,3,19,0.28
2013-2-26,55.0,46.5,42.2,54.0,41.8,36.0,96,84,74,29.80,29.33,8,3,13,0.05
2013-2-27,45.9,42.6,40.4,39.0,35.5,31.0,87,76,69,29.98,29.81,6,1,12,0.00
2013-2-28,43.0,39.8,35.5,34.0,31.4,30.0,81,72,63,30.11,29.98,7,1,11,0.00
2013-3-1,39.7,36.7,33.9,33.0,31.4,31.0,90,81,70,30.16,30.09,5,2,9,0.00
2013-3-2,35.4,33.4,31.3,32.0,28.3,24.0,93,82,68,30.25,30.14,6,2,11,0.00
2013-3-3,50.1,36.0,21.2,32.0,25.4,19.0,93,69,35,30.25,30.09,5,1,6,0.00
2013-3-4,70.9,54.6,32.3,50.0,35.7,28.0,86,52,28,30.09,29.75,6,2,13,0.00
2013-3-5,63.6,50.7,38.4,59.0,41.5,25.0,95,72,48,30.17,29.75,9,3,19,0.35
2013-3-6,45.1,37.5,29.9,31.0,27.7,25.0,92,69,56,30.37,30.17,9,2,14,0.00
2013-3-7,53.1,39.5,28.8,36.0,31.9,27.0,94,76,50,30.41,30.29,6,1,9,0.00
2013-3-8,66.8,47.4,30.6,38.0,32.3,25.0,93,62,21,30.40,30.19,8,1,8,0.00
2013-3-9,71.0,59.9,45.5,42.0,38.2,32.0,75,46,30,30.18,29.92,5,1,12,0.00
2013-3-10,67.6,59.6,53.2,58.0,51.5,42.0,98,77,45,29.95,29.73,9,2,18,1.08
2013-3-11,50.7,42.8,32.0,48.0,37.1,30.0,93,81,64,30.04,29.82,5,1,9,0.00
2013-3-12,57.2,41.4,27.1,37.0,30.5,25.0,96,71,32,30.20,30.03,5,1,8,0.00
2013-3-13,48.3,43.3,35.5,35.0,31.6,28.0,76,64,57,30.34,30.21,4,1,7,0.00
2013-3-23,56.4,52.4,46.6,52.0,49.5,45.0,97,90,83,29.91,29.67,6,2,10,0.26
2013-3-24,51.7,47.0,38.3,52.0,42.8,29.0,99,86,65,29.94,29.53,8,2,17,0.06
2013-3-25,40.0,37.3,34.2,30.0,27.5,25.0,78,68,61,30.25,29.94,7,2,19,0.00
2013-3-26,47.6,37.8,29.7,32.0,28.7,27.0,90,71,47,30.37,30.24,5,1,10,0.00
2013-3-27,59.6,42.9,25.0,38.0,30.7,24.0,94,67,33,30.42,30.30,5,1,7,0.00
2013-3-28,71.0,51.2,32.3,43.0,36.3,31.0,95,63,28,30.36,30.21,3,0,7,0.00
2013-3-29,63.6,53.2,43.6,56.0,47.4,38.0,97,82,45,30.27,30.15,6,0,8,0.03
2013-3-30,58.6,53.6,46.3,58.0,53.0,46.0,99,97,96,30.19,29.92,2,0,5,0.26
2013-3-31,65.1,57.0,45.3,60.0,55.3,44.0,99,94,72,29.95,29.87,5,0,7,0.03
2013-4-1,67.0,53.6,39.8,51.0,45.0,39.0,99,75,51,30.12,29.92,6,1,11,0.00
2013-4-2,52.2,46.9,41.1,43.0,35.0,30.0,92,65,47,30.26,30.10,10,2,12,0.05
2013-4-3,52.3,47.6,42.1,40.0,31.5,26.0,81,55,38,30.23,30.12,11,3,17,0.01
2013-4-4,49.7,45.8,42.2,48.0,43.3,33.0,98,91,54,30.12,29.98,6,1,8,0.08
2013-4-5,70.1,53.7,44.1,48.0,43.8,38.0,99,75,33,30.17,30.05,4,1,9,0.01
2013-4-6,79.3,59.1,41.0,49.0,43.8,40.0,97,64,28,30.10,29.90,6,1,13,0.00
2013-4-7,74.0,63.9,50.4,59.0,53.9,45.0,90,71,51,30.01,29.89,5,1,9,0.00
2013-4-8,81.9,69.1,53.8,63.0,58.4,51.0,91,70,47,29.97,29.83,6,1,11,0.00
2013-4-9,82.8,73.0,60.0,70.0,65.4,57.0,90,78,61,29.97,29.85,8,1,10,0.00
2013-4-10,86.9,78.3,72.4,70.0,68.0,66.0,84,71,52,29.92,29.65,6,2,11,0.07
2013-4-11,73.7,55.0,43.1,68.0,53.7,42.0,97,95,81,29.80,29.65,3,1,9,2.99
2013-4-12,70.2,53.1,38.2,50.0,44.7,38.0,98,77,42,29.99,29.80,6,1,9,0.00
2013-4-13,77.0,58.2,43.8,52.0,45.4,40.0,95,67,34,30.10,29.91,4,1,6,0.00
2013-4-14,72.3,61.8,49.7,59.0,53.6,47.0,93,76,56,29.91,29.73,6,1,11,0.00
2013-4-15,85.0,69.2,54.9,67.0,61.0,53.0,96,77,51,29.91,29.80,9,1,9,0.00
2013-4-16,87.9,77.6,70.5,75.0,71.0,65.0,93,81,61,30.02,29.89,5,1,9,0.00
2013-4-17,89.3,77.7,66.2,74.0,70.4,65.0,98,79,55,30.05,29.82,6,1,9,0.00
2013-4-18,82.5,71.8,47.4,70.0,64.0,46.0,95,78,56,29.83,29.56,6,2,13,0.49
2013-4-19,56.2,47.6,40.4,45.0,38.4,35.0,94,72,48,30.13,29.81,6,1,11,0.00
2013-4-20,71.0,53.0,36.1,47.0,40.2,35.0,97,68,32,30.25,30.13,3,0,7,0.00
2013-4-21,71.5,58.1,42.6,44.0,41.0,35.0,91,58,29,30.34,30.17,9,1,11,0.00
2013-5-5,58.3,54.8,53.2,52.0,50.5,49.0,96,86,70,29.89,29.86,3,1,9,0.00
2013-5-6,62.9,58.3,53.5,59.0,56.0,53.0,98,92,82,29.93,29.84,3,0,6,0.00
2013-5-7,75.6,63.4,51.1,62.0,57.4,50.0,99,83,57,30.00,29.91,4,0,6,0.00
2013-5-8,86.3,68.2,51.7,65.0,58.9,51.0,99,76,44,30.06,29.97,3,0,4,0.00
2013-5-9,84.2,69.5,57.0,68.0,61.9,56.0,99,79,51,30.06,29.93,6,1,12,0.00
2013-5-10,66.7,65.3,64.2,66.0,64.6,63.0,98,97,97,29.93,29.89,0,0,0,0.68
2013-5-11,73.4,65.6,60.0,66.0,60.1,55.0,99,84,57,30.05,29.90,5,1,6,0.01
2013-5-12,67.2,58.7,47.6,55.0,42.8,34.0,91,59,32,30.21,30.06,7,1,10,0.00
2013-5-13,78.7,61.0,43.3,58.0,49.3,42.0,96,70,36,30.26,30.10,4,0,6,0.00
2013-5-14,89.7,72.8,58.0,66.0,59.1,53.0,86,65,42,30.11,29.98,4,1,10,0.00
2013-5-15,87.9,73.6,57.8,64.0,58.8,53.0,94,63,35,30.09,29.92,6,1,11,0.00
2013-5-16,81.6,71.7,64.1,69.0,64.5,62.0,96,79,61,29.98,29.87,3,0,5,0.02
2013-5-17,79.3,71.4,66.6,74.0,68.3,64.0,97,90,75,29.92,29.85,2,0,4,0.19
2013-5-18,88.1,76.4,64.8,78.0,72.3,64.0,99,88,69,29.96,29.88,3,0,6,0.00
2013-5-19,92.5,81.0,73.3,75.0,72.2,70.0,97,76,51,29.95,29.83,4,1,9,0.00
2013-5-20,90.5,80.9,72.9,76.0,73.1,71.0,95,78,60,29.93,29.80,4,1,9,0.00
2013-5-21,80.1,72.8,66.3,75.0,70.0,66.0,98,91,80,29.97,29.75,3,0,9,0.10
2013-5-27,85.5,81.4,74.1,72.0,67.7,63.0,79,64,48,30.04,29.94,10,2,11,0.00
2013-5-28,87.2,79.2,72.4,73.0,67.2,62.0,85,68,45,30.01,29.92,7,2,9,0.00
2013-5-29,87.6,77.5,62.2,73.0,67.5,59.0,93,72,50,30.01,29.90,7,1,8,0.00
2013-5-30,86.0,77.6,73.7,77.0,71.6,68.0,92,82,68,30.00,29.89,6,1,12,0.12
2013-5-31,84.8,77.1,67.0,78.0,73.8,67.0,99,89,78,29.98,29.82,5,1,9,1.78
2013-6-1,83.3,74.3,69.3,77.0,72.6,68.0,98,94,78,29.95,29.80,6,1,11,0.37
2013-6-2,81.3,73.4,67.3,71.0,68.4,63.0,99,85,65,29.94,29.87,2,0,5,0.00
2013-6-3,80.8,69.4,60.8,67.0,63.7,60.0,98,84,55,29.99,29.89,3,0,4,0.00
2013-6-4,85.5,71.7,60.3,70.0,64.2,60.0,97,80,49,29.99,29.89,4,0,5,0.00
2013-6-5,88.5,77.5,67.2,77.0,71.5,66.0,94,82,66,29.93,29.77,4,1,6,0.00
2013-6-6,83.2,74.1,68.3,72.0,69.8,68.0,99,87,67,29.81,29.73,3,0,7,0.00
2013-6-7,82.0,72.6,63.2,69.0,65.2,61.0,93,78,52,29.86,29.74,3,0,5,0.00
2013-6-8,84.4,72.1,57.7,69.0,61.4,57.0,99,73,43,29.96,29.85,2,0,5,0.00
2013-6-9,87.7,75.1,63.8,75.0,68.8,61.0,98,82,59,29.97,29.78,8,1,10,0.01
2013-6-10,90.4,78.4,68.8,75.0,71.0,69.0,99,81,51,29.89,29.82,9,2,11,0.00
2013-6-11,94.9,83.1,71.6,78.0,74.6,70.0,97,77,53,29.98,29.89,6,1,6,0.00
2013-6-12,93.9,84.6,71.7,80.0,76.2,71.0,99,78,59,30.01,29.86,6,2,9,0.00
2013-6-13,93.3,83.2,71.0,79.0,73.8,67.0,87,74,53,29.92,29.84,3,1,8,0.00
2013-6-14,88.7,74.5,64.7,67.0,64.8,62.0,98,75,43,30.02,29.92,4,1,6,0.00
2013-6-15,91.0,77.3,62.5,72.0,66.8,62.0,98,74,46,30.04,29.93,4,1,5,0.00
2013-6-16,88.8,78.7,68.6,78.0,72.6,68.0,97,82,63,30.01,29.91,2,0,4,0.00
2013-6-17,83.3,75.8,72.0,77.0,73.3,71.0,98,92,79,29.94,29.81,5,1,9,0.56
2013-6-18,84.7,75.1,69.9,75.0,71.9,69.0,99,90,66,29.93,29.80,4,0,4,0.01
2013-6-19,90.9,75.4,67.0,76.0,70.9,67.0,100,88,54,30.01,29.91,3,0,4,0.44
2013-6-20,92.3,78.1,66.9,78.0,71.3,67.0,100,82,53,30.09,30.01,4,0,4,0.00
2013-6-21,90.6,80.6,69.2,77.0,73.1,68.0,98,80,59,30.13,30.03,2,0,6,0.00
2013-6-22,91.5,80.7,69.2,76.0,72.8,68.0,98,79,54,30.11,29.98,4,1,6,0.00
2013-6-23,93.1,79.4,69.6,75.0,72.1,68.0,96,80,55,30.08,29.97,3,0,5,0.00
2013-6-24,92.8,79.5,71.6,79.0,74.1,70.0,98,85,60,30.09,29.96,3,0,4,0.00
2013-6-25,90.2,81.5,74.0,78.0,74.9,72.0,97,81,60,30.04,29.89,5,1,9,0.00
2013-6-26,91.5,82.9,73.7,78.0,74.5,72.0,95,77,58,29.95,29.80,7,2,11,0.00
2013-6-27,97.4,86.9,75.4,82.0,77.2,73.0,91,74,57,29.87,29.77,4,1,8,0.00
2013-6-28,87.7,77.9,72.1,77.0,73.9,71.0,98,88,68,29.89,29.66,3,0,10,0.25
2013-6-29,89.8,79.3,66.8,72.0,67.5,61.0,98,70,43,29.73,29.65,4,1,10,0.00
2013-6-30,81.0,73.2,65.1,69.0,66.5,64.0,96,80,63,29.80,29.68,4,1,7,0.00
2013-7-1,79.9,72.3,64.5,71.0,67.1,63.0,97,84,67,29.89,29.79,3,0,5,0.04
2013-7-2,82.7,73.3,62.8,69.0,65.3,62.0,98,78,57,30.00,29.88,4,1,7,0.43
2013-7-3,83.9,71.5,62.8,70.0,66.5,62.0,99,86,56,30.07,29.98,2,0,5,0.00
2013-7-4,89.7,76.4,64.2,75.0,70.1,64.0,99,82,57,30.02,29.92,3,0,6,0.00
2013-7-5,87.5,75.5,65.7,75.0,70.6,65.0,98,86,64,30.04,29.93,5,0,6,1.29
2013-7-6,86.7,75.2,65.5,76.0,71.3,65.0,99,89,62,30.04,29.93,3,0,4,0.00
2013-7-7,89.0,79.3,70.8,78.0,74.2,70.0,98,85,66,30.06,29.98,4,0,4,0.00
2013-7-8,91.1,79.7,70.8,80.0,75.1,70.0,99,87,66,30.10,30.02,3,0,5,0.00
2013-7-9,93.2,83.8,73.1,79.0,76.0,73.0,99,79,57,30.08,29.96,5,1,6,0.00
2013-7-10,93.7,84.5,75.6,82.0,77.4,72.0,96,80,60,30.00,29.84,4,1,10,0.06
2013-7-11,96.0,85.0,74.0,81.0,76.1,67.0,99,77,56,29.93,29.85,3,1,5,0.01
2013-7-12,88.4,74.9,65.2,70.0,66.3,63.0,92,76,50,29.99,29.91,4,1,7,0.00
2013-7-13,90.4,75.3,61.3,69.0,64.8,60.0,98,73,43,30.00,29.92,3,0,5,0.00
2013-7-14,89.5,76.4,66.2,76.0,71.6,65.0,97,86,62,30.05,29.94,4,0,8,0.00
2013-7-15,91.4,79.8,74.0,80.0,75.9,73.0,96,88,63,30.16,30.04,2,0,8,0.17
2013-7-16,92.5,83.1,72.5,79.0,75.0,72.0,98,79,57,30.23,30.15,2,0,4,0.00
2013-7-17,96.6,82.4,71.2,81.0,75.5,71.0,99,82,53,30.26,30.11,1,0,3,0.00
2013-7-18,94.7,80.7,72.9,82.0,76.4,72.0,99,88,60,30.15,29.97,3,0,11,1.11
2013-7-19,89.5,78.6,71.2,80.0,74.6,71.0,100,88,66,30.05,29.89,2,0,6,0.00
2013-7-20,90.7,79.5,71.1,79.0,74.8,71.0,99,86,65,29.94,29.81,2,0,5,0.00
2013-7-21,92.3,82.7,74.4,80.0,76.3,73.0,98,82,56,29.93,29.84,6,1,7,0.05
2013-7-22,86.0,77.5,70.3,80.0,74.5,69.0,99,91,75,29.92,29.82,7,2,10,1.15
2013-7-23,87.4,78.9,72.7,81.0,76.0,71.0,99,91,74,29.96,29.79,3,0,6,0.20
2013-7-24,86.8,78.9,73.0,79.0,75.4,70.0,99,89,67,29.93,29.81,3,0,4,0.12
2013-7-25,83.3,73.8,64.6,70.0,67.3,64.0,97,81,59,30.03,29.92,4,0,5,0.00
2013-7-26,86.1,74.0,61.9,72.0,67.8,61.0,100,83,55,30.04,29.92,4,0,4,0.00
2013-7-27,85.7,77.3,71.0,74.0,71.4,70.0,98,83,66,29.97,29.86,2,0,4,0.00
2013-7-28,82.4,73.1,65.9,71.0,66.5,64.0,94,81,57,30.04,29.91,3,1,5,0.00
2013-7-29,87.3,75.5,66.6,72.0,68.2,65.0,96,80,52,30.12,30.02,2,0,4,0.00
2013-7-30,86.3,76.4,71.1,79.0,72.2,67.0,96,86,78,30.09,29.98,1,0,3,0.00
2013-7-31,87.8,79.2,74.4,81.0,76.2,74.0,98,91,74,30.01,29.88,3,0,6,0.66
2013-8-1,87.9,77.1,69.9,77.0,73.3,69.0,100,89,67,30.01,29.93,3,0,4,0.00
2013-8-2,88.4,77.2,65.4,76.0,71.5,65.0,100,84,58,30.00,29.91,3,0,5,0.00
2013-8-3,81.6,76.0,72.5,77.0,74.1,71.0,98,94,84,30.03,29.90,2,0,5,0.50
2013-8-4,92.4,77.9,69.1,79.0,73.8,69.0,100,88,64,30.07,30.00,2,0,4,0.00
2013-8-5,80.3,75.5,71.2,79.0,73.8,70.0,99,94,86,30.02,29.89,1,0,3,0.51
2013-8-6,85.4,79.8,75.0,81.0,77.6,75.0,100,93,81,29.93,29.84,4,0,4,0.03
2013-8-7,91.8,83.4,75.1,82.0,78.0,75.0,98,85,59,29.91,29.82,3,0,4,0.00
2013-8-8,95.4,84.1,77.2,84.0,79.5,77.0,99,87,64,29.91,29.82,3,0,6,0.00
2013-8-9,94.4,84.3,75.0,83.0,78.9,74.0,98,85,62,29.98,29.88,3,0,7,0.00
2013-8-10,87.7,81.5,75.6,79.0,77.1,75.0,99,87,71,30.09,29.96,4,0,6,0.00
2013-8-11,85.5,78.5,74.3,80.0,76.8,74.0,99,94,83,30.10,30.01,2,0,3,0.34
2013-8-12,91.8,81.5,73.6,82.0,77.5,73.0,99,88,69,30.03,29.88,4,1,8,0.25
2013-8-13,86.3,78.0,72.0,78.0,74.8,72.0,100,90,73,29.97,29.88,3,0,5,0.01
2013-8-14,77.8,72.7,63.5,71.0,65.0,60.0,94,78,60,30.05,29.95,5,1,9,0.00
2013-8-15,80.6,68.6,57.4,65.0,61.6,57.0,97,80,57,30.06,29.97,2,0,5,0.00
2013-8-16,82.6,71.7,61.3,73.0,67.3,60.0,97,86,70,30.02,29.95,2,0,4,0.00
2013-8-17,82.8,74.6,66.8,73.0,70.2,66.0,99,87,72,30.06,29.98,4,0,5,0.03
2013-8-18,83.6,74.6,66.8,74.0,70.2,66.0,99,87,67,30.10,30.01,3,0,3,0.00
2013-8-19,86.3,74.0,65.7,75.0,70.1,65.0,100,89,63,30.07,29.97,3,0,4,0.00
2013-8-20,88.8,77.3,68.4,78.0,73.2,68.0,100,88,67,30.07,29.98,2,0,4,0.00
2013-8-21,93.8,80.9,69.0,80.0,73.8,69.0,100,82,49,30.10,30.01,3,0,4,0.00
2013-8-22,92.5,81.6,71.9,80.0,76.3,71.0,99,85,61,30.10,29.96,2,0,4,0.00
2013-8-23,93.6,82.0,69.7,80.0,75.0,69.0,100,81,54,30.04,29.94,2,0,7,0.00
2013-8-24,94.0,81.8,71.8,81.0,75.3,71.0,99,82,58,30.10,30.00,2,0,7,0.00
2013-8-25,89.6,80.6,73.6,79.0,75.8,73.0,97,86,65,30.22,30.10,4,0,4,0.00
2013-8-26,91.5,78.7,69.3,75.0,72.2,69.0,99,82,58,30.23,30.09,4,0,4,0.00
2013-8-27,90.2,77.8,65.2,75.0,69.9,64.0,99,79,52,30.12,30.01,3,0,4,0.00
2013-8-28,93.4,77.6,65.8,76.0,70.7,65.0,100,82,51,30.06,29.98,4,0,4,0.00
2013-8-29,94.2,80.5,68.0,78.0,73.2,68.0,99,81,53,30.04,29.93,3,0,5,0.00
2013-8-30,95.9,81.7,70.1,81.0,74.0,70.0,100,80,50,29.98,29.86,2,0,5,0.00
2013-8-31,97.0,84.8,71.5,79.0,75.3,71.0,99,76,52,29.89,29.77,6,1,8,0.00
2013-9-1,93.1,78.3,73.7,79.0,74.6,72.0,97,88,62,29.90,29.77,4,0,11,0.62
2013-9-2,89.1,78.3,72.5,80.0,75.2,72.0,100,91,70,29.88,29.79,5,1,7,0.00
2013-9-3,88.4,77.6,67.3,73.0,69.8,66.0,99,79,54,29.99,29.87,4,1,5,0.00
2013-9-4,87.0,74.0,61.8,72.0,66.9,61.0,100,81,56,30.09,29.98,3,0,4,0.00
2013-9-5,89.1,75.6,61.8,72.0,67.4,61.0,99,78,51,30.13,30.05,3,0,5,0.00
2013-9-6,90.7,77.4,64.6,73.0,68.7,64.0,98,78,46,30.11,30.00,3,0,4,0.00
2013-9-7,92.9,79.8,64.2,76.0,70.3,64.0,100,76,47,30.05,29.92,3,0,6,0.00
2013-9-8,97.1,79.1,66.5,78.0,71.6,66.0,99,81,47,29.96,29.85,5,0,6,0.00
2013-9-9,91.6,81.0,71.0,78.0,74.1,70.0,97,81,60,29.99,29.90,4,1,6,0.00
2013-9-10,96.4,80.3,71.6,79.0,73.9,71.0,98,83,47,30.09,29.99,5,0,14,0.00
2013-9-11,92.6,80.6,72.4,79.0,75.3,72.0,98,85,60,30.13,30.02,3,0,4,0.00
2013-9-12,93.2,80.0,69.5,78.0,73.0,69.0,99,81,53,30.03,29.88,3,0,6,0.00
2013-9-13,82.5,73.6,60.3,73.0,64.5,57.0,97,76,46,29.99,29.91,6,1,8,0.05
2013-9-14,76.2,65.1,52.7,58.0,54.5,52.0,98,72,46,30.08,29.99,5,1,7,0.00
2013-9-15,84.6,67.5,49.8,65.0,56.8,49.0,99,73,41,30.08,30.02,5,0,6,0.00
2013-9-16,89.9,71.5,57.5,70.0,62.7,56.0,99,77,33,30.12,30.05,3,1,6,0.00
2013-9-17,89.6,77.5,65.6,72.0,68.7,65.0,99,77,51,30.12,30.00,3,0,4,0.00
2013-9-18,87.1,79.2,69.0,76.0,72.7,68.0,96,81,66,30.07,29.98,4,1,6,0.00
2013-9-19,91.2,78.6,68.9,75.0,71.1,68.0,99,80,51,30.06,29.91,5,1,8,0.00
2013-9-20,74.1,73.6,73.3,69.0,68.8,68.0,85,84,83,29.94,29.94,0,0,1,0.00
2013-9-29,69.7,67.2,65.9,66.0,65.5,65.0,98,94,87,29.98,29.93,1,0,3,0.09
2013-9-30,74.3,69.2,66.1,71.0,68.3,66.0,99,97,89,29.96,29.90,1,0,4,0.07
2013-10-1,83.8,74.1,67.2,76.0,71.0,66.0,99,90,72,30.03,29.94,6,1,8,0.14
2013-10-2,84.5,75.3,67.8,73.0,70.1,67.0,99,85,62,30.07,29.98,2,0,6,0.00
2013-10-3,86.6,75.9,65.7,75.0,70.6,65.0,99,85,65,30.02,29.91,4,0,7,0.00
2013-10-4,84.1,75.1,68.7,76.0,72.1,68.0,99,91,76,30.03,29.94,3,0,6,0.00
2013-10-5,87.7,78.5,72.1,76.0,73.8,71.0,98,86,66,29.99,29.83,4,1,6,0.00
2013-10-6,76.8,62.6,55.4,74.0,57.5,50.0,97,84,59,29.97,29.83,4,0,6,0.21
2013-10-7,67.4,55.8,45.8,55.0,50.5,45.0,99,84,61,30.09,29.95,4,1,6,0.00
2013-10-8,72.4,60.2,48.0,57.0,52.8,48.0,99,79,52,30.14,30.03,4,1,8,0.00
2013-10-9,77.8,65.5,53.7,69.0,61.4,53.0,98,87,73,30.12,30.04,4,0,6,0.00
2013-10-10,79.0,65.2,55.6,69.0,61.2,55.0,100,88,62,30.13,29.98,1,0,3,0.00
2013-10-11,81.9,64.7,55.7,69.0,60.2,55.0,99,87,55,30.03,29.94,3,0,6,0.00
2013-10-12,75.9,65.7,56.8,71.0,64.1,56.0,99,94,83,30.10,29.96,2,0,5,0.01
2013-10-13,79.6,69.1,61.1,69.0,64.9,59.0,100,87,66,30.24,30.10,6,1,6,0.00
2013-10-14,82.7,66.3,55.1,68.0,60.9,53.0,94,84,54,30.20,30.03,2,0,4,0.00
2013-10-15,73.8,69.8,67.3,69.0,66.6,65.0,99,90,80,30.03,29.92,2,0,5,0.04
2013-10-16,67.6,60.8,56.5,67.0,60.0,56.0,99,97,89,30.00,29.91,3,0,5,0.42
2013-10-17,66.9,58.9,47.7,60.0,55.6,47.0,98,89,64,30.01,29.94,3,0,5,0.01
2013-10-18,71.2,56.9,43.3,59.0,51.0,43.0,99,83,54,30.06,29.92,6,0,6,0.00
2013-10-19,57.9,52.7,40.7,56.0,49.7,39.0,98,90,69,30.07,29.90,3,0,8,0.00
2013-10-20,66.0,50.2,37.4,51.0,43.2,37.0,99,80,48,30.12,29.99,5,0,7,0.00
2013-10-21,71.9,56.9,40.4,57.0,48.9,40.0,99,78,49,30.07,29.95,4,1,7,0.00
2013-10-22,66.1,56.6,48.3,55.0,50.5,44.0,97,82,45,30.05,29.87,2,0,5,0.00
2013-10-23,58.0,51.2,41.3,50.0,42.8,40.0,94,74,54,30.14,29.93,4,0,6,0.00
2013-10-24,64.3,49.5,39.5,49.0,42.9,37.0,97,80,55,30.37,30.10,5,1,7,0.00
2013-10-25,53.2,40.9,32.1,36.0,33.4,30.0,97,78,43,30.52,30.33,4,0,7,0.00
2013-10-26,65.1,48.4,33.6,51.0,40.3,32.0,97,76,50,30.32,30.09,5,1,10,0.00
2013-10-27,69.1,59.6,51.9,62.0,56.7,49.0,97,90,74,30.09,29.99,2,0,4,0.00
2013-10-28,69.5,60.7,56.5,61.0,58.3,56.0,98,92,69,30.20,30.04,1,0,3,0.00
2013-10-29,76.1,63.7,52.0,69.0,61.0,51.0,100,91,74,30.22,30.09,4,0,6,0.00
2013-10-30,76.0,68.6,61.0,69.0,64.8,60.0,98,88,77,30.16,29.95,4,1,6,0.00
2013-10-31,71.7,68.2,63.3,69.0,66.1,55.0,99,93,67,29.93,29.54,12,3,12,0.00
2013-11-1,72.8,58.4,47.1,56.0,51.7,46.0,100,81,45,29.88,29.74,3,1,8,0.00
2013-11-2,60.6,51.1,40.5,52.0,46.0,39.0,99,84,57,30.20,29.87,4,0,8,0.00
2013-11-3,60.6,47.2,34.5,48.0,39.7,34.0,99,79,50,30.31,30.14,4,0,6,0.00
2013-11-4,66.9,53.9,39.5,52.0,46.9,38.0,96,79,50,30.28,30.19,5,0,7,0.00
2013-11-5,71.6,61.0,51.5,56.0,51.6,46.0,92,72,56,30.29,30.13,3,1,6,0.00
2013-11-6,64.1,59.0,47.0,62.0,54.6,44.0,98,85,71,30.23,30.01,5,1,8,0.00
2013-11-7,55.7,45.3,35.7,43.0,37.7,34.0,94,77,47,30.40,30.24,4,1,7,0.00
2013-11-8,62.9,46.3,32.0,45.0,37.8,31.0,99,76,40,30.39,30.21,3,0,5,0.00
2013-11-9,61.6,49.5,38.2,47.0,42.8,37.0,97,80,52,30.29,30.18,7,1,10,0.00
2013-11-10,67.6,50.9,40.9,50.0,44.1,39.0,98,80,41,30.35,30.25,5,0,7,0.00
2013-11-11,70.8,51.2,36.1,49.0,42.0,35.0,98,76,39,30.30,30.15,4,1,6,0.00
2013-11-12,55.8,42.2,31.0,51.0,33.8,24.0,94,73,49,30.66,30.20,8,3,19,0.00
2013-11-13,47.8,33.9,25.6,28.0,25.1,22.0,91,73,38,30.72,30.45,4,1,6,0.00
2013-11-14,58.5,40.8,22.4,29.0,25.6,21.0,96,61,25,30.45,30.17,7,1,9,0.00
2013-11-15,60.5,49.7,37.5,55.0,45.5,32.0,96,86,75,30.17,30.01,5,0,6,0.00
2013-11-16,68.7,63.0,54.8,66.0,61.1,53.0,98,93,84,30.04,29.84,6,2,11,0.00
2013-11-17,77.4,69.0,53.7,73.0,67.1,53.0,98,93,85,29.96,29.67,9,4,14,0.00
2013-11-18,63.4,51.2,39.6,53.0,41.6,34.0,98,72,41,30.24,29.95,5,1,8,0.00
2013-11-19,51.8,42.7,32.8,35.0,33.0,31.0,92,71,46,30.30,30.16,4,1,8,0.00
2013-11-20,65.0,45.3,30.6,44.0,36.8,29.0,97,76,44,30.18,30.07,5,1,7,0.00
2013-11-21,69.7,59.9,52.2,60.0,53.9,45.0,97,81,68,30.20,30.10,8,2,9,0.00
2013-11-22,60.7,54.8,44.9,61.0,53.9,43.0,99,96,91,30.38,30.13,8,2,11,0.00
2013-11-23,46.0,42.0,30.7,43.0,33.8,22.0,92,74,42,30.58,30.34,11,3,15,0.00
2013-11-24,36.2,30.1,23.7,22.0,19.6,18.0,78,66,50,30.67,30.44,11,4,13,0.00
2013-11-25,37.4,35.7,33.1,36.0,28.4,20.0,97,76,56,30.45,30.14,4,1,5,0.00
2013-11-26,40.9,37.7,36.2,38.0,36.0,29.0,98,94,72,30.12,29.95,5,2,9,0.00
2013-11-27,34.8,29.1,19.8,26.0,20.0,18.0,91,70,55,30.40,30.13,8,2,10,0.00
2013-11-28,46.7,30.0,17.6,26.0,21.9,16.0,94,75,42,30.50,30.40,7,1,8,0.00
2013-11-29,56.0,36.8,24.3,35.0,29.1,23.0,96,77,45,30.58,30.45,2,0,5,0.00
2013-11-30,57.8,42.0,25.7,35.0,31.4,24.0,97,70,38,30.46,30.22,8,1,11,0.00
2013-12-1,60.1,51.2,36.3,47.0,40.4,32.0,86,67,59,30.23,29.92,5,1,8,0.00
2013-12-2,62.0,55.8,46.6,56.0,51.0,45.0,95,84,73,29.91,29.70,3,1,5,0.00
2013-12-3,60.6,55.7,45.7,60.0,54.7,45.0,99,96,93,29.74,29.66,2,0,5,0.00
2013-12-4,76.7,69.0,60.0,66.0,64.3,60.0,99,85,68,29.79,29.66,10,3,18,0.00
2013-12-5,69.3,49.9,35.4,68.0,47.9,34.0,97,93,82,30.14,29.79,8,2,13,0.41
2013-12-6,35.3,32.7,27.3,34.0,31.5,26.0,97,95,94,30.45,30.06,9,3,13,0.52
2013-12-7,30.2,26.7,23.4,29.0,24.9,21.0,96,93,91,30.58,30.35,5,2,7,0.00
2013-12-8,32.4,31.6,30.5,32.0,30.7,29.0,97,96,95,30.34,30.21,3,0,4,0.00
2013-12-14,44.9,40.8,37.1,44.0,37.9,33.0,96,89,85,30.14,29.89,5,2,7,0.47
2013-12-15,40.8,35.2,29.0,33.0,30.7,27.0,95,84,73,30.29,30.15,3,1,7,0.00
2013-12-16,59.3,45.2,32.2,42.0,37.3,31.0,95,76,52,30.21,30.11,7,3,14,0.00
2013-12-17,59.9,46.2,29.6,43.0,37.9,28.0,94,75,52,30.31,30.15,7,1,10,0.00
2013-12-18,60.3,41.6,26.0,40.0,32.0,25.0,98,73,36,30.36,30.13,7,1,9,0.00
2013-12-19,62.5,55.2,46.0,56.0,47.8,40.0,85,76,69,30.15,29.94,7,2,16,0.00
2013-12-20,68.6,65.5,61.1,66.0,61.9,56.0,97,88,79,29.97,29.79,10,3,13,0.31
2013-12-21,76.9,67.7,56.0,69.0,64.3,56.0,99,89,72,29.78,29.45,10,4,21,0.97
2013-12-22,56.6,51.1,39.2,55.0,49.5,35.0,99,94,84,30.22,29.68,4,1,7,0.00
2013-12-23,39.1,35.3,25.9,35.0,29.7,24.0,94,80,71,30.51,30.22,6,1,9,0.00
2013-12-24,34.6,27.6,22.4,27.0,21.9,18.0,97,80,53,30.63,30.43,4,1,10,0.00
2013-12-25,50.3,31.1,19.3,34.0,24.6,18.0,95,80,43,30.45,30.32,4,0,7,0.00
2013-12-26,46.9,32.1,24.6,34.0,27.8,24.0,98,85,55,30.46,30.36,5,1,8,0.00
2013-12-27,56.3,32.9,22.7,36.0,27.5,22.0,95,83,42,30.49,30.37,2,0,4,0.00
2013-12-28,48.7,37.5,29.2,42.0,34.1,27.0,97,88,68,30.37,29.98,2,0,2,0.10
2013-12-29,56.4,46.3,36.2,46.0,42.2,32.0,99,87,66,30.20,29.95,5,1,10,0.13
2013-12-30,35.6,32.0,29.1,32.0,27.2,25.0,90,82,80,30.36,30.19,6,2,9,0.00
2013-12-31,49.7,31.9,20.1,33.0,26.1,19.0,97,81,52,30.48,30.32,3,0,5,0.00
2014-1-1,55.9,36.5,22.7,45.0,31.4,21.0,98,84,49,30.32,29.94,4,1,6,0.02
2014-1-2,50.9,34.7,23.3,49.0,29.3,16.0,97,81,69,30.46,29.89,7,3,13,0.21